createdAt,value
2022-12-22T00:01:38.132Z,9.50
2022-12-22T00:04:09.203Z,9.50
2022-12-22T00:06:36.051Z,9.50
2022-12-22T00:09:05.715Z,9.50
2022-12-22T00:11:32.783Z,9.50
2022-12-22T00:13:59.429Z,9.50
2022-12-22T00:16:33.321Z,9.60
2022-12-22T00:19:00.013Z,9.60
2022-12-22T00:21:28.238Z,9.50
2022-12-22T00:23:54.822Z,9.60
2022-12-22T00:26:21.595Z,9.50
2022-12-22T00:28:48.210Z,9.60
2022-12-22T00:31:14.913Z,9.50
2022-12-22T00:33:41.706Z,9.60
2022-12-22T00:36:10.272Z,9.60
2022-12-22T00:38:36.977Z,9.60
2022-12-22T00:41:03.889Z,9.60
2022-12-22T00:43:30.539Z,9.60
2022-12-22T00:45:57.238Z,9.60
2022-12-22T00:48:25.561Z,9.60
2022-12-22T00:50:52.199Z,9.60
2022-12-22T00:53:18.954Z,9.60
2022-12-22T00:55:45.631Z,9.50
2022-12-22T00:58:15.497Z,9.60
2022-12-22T01:00:42.293Z,9.50
2022-12-22T01:03:10.335Z,9.50
2022-12-22T01:05:37.088Z,9.60
2022-12-22T01:08:03.917Z,9.60
2022-12-22T01:10:30.686Z,9.60
2022-12-22T01:12:57.285Z,9.60
2022-12-22T01:15:24.045Z,9.60
2022-12-22T01:17:50.741Z,9.60
2022-12-22T01:20:17.362Z,9.60
2022-12-22T01:22:44.067Z,9.70
2022-12-22T01:25:25.741Z,9.60
2022-12-22T01:27:59.033Z,9.60
2022-12-22T01:30:25.697Z,9.70
2022-12-22T01:32:52.376Z,9.60
2022-12-22T01:35:25.271Z,9.60
2022-12-22T01:37:51.918Z,9.60
2022-12-22T01:40:21.031Z,9.60
2022-12-22T01:42:47.668Z,9.60
2022-12-22T01:45:21.586Z,9.60
2022-12-22T01:47:52.218Z,9.60
2022-12-22T01:50:25.411Z,9.60
2022-12-22T01:52:52.038Z,9.60
2022-12-22T01:55:21.448Z,9.60
2022-12-22T01:57:48.118Z,9.60
2022-12-22T02:00:15.068Z,9.60
2022-12-22T02:02:41.774Z,9.60
2022-12-22T02:05:08.771Z,9.60
2022-12-22T02:07:58.557Z,9.60
2022-12-22T02:10:49.404Z,9.60
2022-12-22T02:13:39.232Z,9.60
2022-12-22T02:16:11.630Z,9.60
2022-12-22T02:18:42.494Z,9.60
2022-12-22T02:21:16.219Z,9.60
2022-12-22T02:24:13.883Z,9.60
2022-12-22T02:26:50.262Z,9.60
2022-12-22T02:29:22.265Z,9.60
2022-12-22T02:31:49.063Z,9.60
2022-12-22T02:34:15.844Z,9.60
2022-12-22T02:36:49.154Z,9.60
2022-12-22T02:39:23.912Z,9.60
2022-12-22T02:42:13.714Z,9.60
2022-12-22T02:44:52.192Z,9.60
2022-12-22T02:47:54.221Z,9.60
2022-12-22T02:50:35.158Z,9.60
2022-12-22T02:53:01.800Z,9.60
2022-12-22T02:55:28.517Z,9.50
2022-12-22T02:57:56.723Z,9.60
2022-12-22T03:00:23.426Z,9.50
2022-12-22T03:02:50.229Z,9.50
2022-12-22T03:05:16.950Z,9.50
2022-12-22T03:07:43.694Z,9.50
2022-12-22T03:10:10.520Z,9.50
2022-12-22T03:12:37.181Z,9.50
2022-12-22T03:15:14.165Z,9.50
2022-12-22T03:17:40.943Z,9.50
2022-12-22T03:20:08.204Z,9.50
2022-12-22T03:22:34.828Z,9.50
2022-12-22T03:25:01.483Z,9.50
2022-12-22T03:27:28.081Z,9.50
2022-12-22T03:29:54.761Z,9.50
2022-12-22T03:32:21.411Z,9.50
2022-12-22T03:34:48.014Z,9.50
2022-12-22T03:37:14.649Z,9.50
2022-12-22T03:39:41.244Z,9.50
2022-12-22T03:42:11.199Z,9.50
2022-12-22T03:44:37.928Z,9.50
2022-12-22T03:47:04.669Z,9.50
2022-12-22T03:49:31.433Z,9.50
2022-12-22T03:51:58.142Z,9.50
2022-12-22T03:54:25.318Z,9.50
2022-12-22T03:56:52.136Z,9.50
2022-12-22T03:59:19.013Z,9.50
2022-12-22T04:01:47.864Z,9.50
2022-12-22T04:04:15.173Z,9.50
2022-12-22T04:06:42.095Z,9.50
2022-12-22T04:09:08.758Z,9.50
2022-12-22T04:11:35.457Z,9.60
2022-12-22T04:14:02.490Z,9.50
2022-12-22T04:16:29.253Z,9.50
2022-12-22T04:18:57.062Z,9.60
2022-12-22T04:21:24.147Z,9.60
2022-12-22T04:23:50.838Z,9.60
2022-12-22T04:26:21.779Z,9.60
2022-12-22T04:28:48.886Z,9.60
2022-12-22T04:31:15.753Z,9.50
2022-12-22T04:33:42.575Z,9.50
2022-12-22T04:36:09.563Z,9.50
2022-12-22T04:38:36.299Z,9.50
2022-12-22T04:41:03.019Z,9.50
2022-12-22T04:43:31.817Z,9.50
2022-12-22T04:45:58.630Z,9.50
2022-12-22T04:48:26.235Z,9.50
2022-12-22T04:50:53.694Z,9.50
2022-12-22T04:53:20.466Z,9.50
2022-12-22T04:55:48.234Z,9.50
2022-12-22T04:58:15.008Z,9.40
2022-12-22T05:00:41.843Z,9.40
2022-12-22T05:03:08.610Z,9.40
2022-12-22T05:05:35.678Z,9.40
2022-12-22T05:08:02.824Z,9.40
2022-12-22T05:10:29.561Z,9.40
2022-12-22T05:12:56.296Z,9.40
2022-12-22T05:15:27.614Z,9.40
2022-12-22T05:17:54.322Z,9.30
2022-12-22T05:20:20.959Z,9.30
2022-12-22T05:22:47.683Z,9.30
2022-12-22T05:25:14.610Z,9.30
2022-12-22T05:27:41.262Z,9.30
2022-12-22T05:30:08.608Z,9.30
2022-12-22T05:32:35.341Z,9.30
2022-12-22T05:35:05.847Z,9.30
2022-12-22T05:37:32.524Z,9.30
2022-12-22T05:39:59.197Z,9.20
2022-12-22T05:42:25.816Z,9.20
2022-12-22T05:44:52.458Z,9.20
2022-12-22T05:47:19.167Z,9.20
2022-12-22T05:49:45.810Z,9.20
2022-12-22T05:52:12.436Z,9.20
2022-12-22T05:54:39.114Z,9.20
2022-12-22T05:57:05.751Z,9.20
2022-12-22T05:59:32.568Z,9.10
2022-12-22T06:01:59.184Z,9.10
2022-12-22T06:04:26.130Z,9.10
2022-12-22T06:06:56.093Z,9.10
2022-12-22T06:09:22.804Z,9.10
2022-12-22T06:11:49.529Z,9.10
2022-12-22T06:14:16.164Z,9.00
2022-12-22T06:16:42.826Z,9.00
2022-12-22T06:19:09.410Z,9.00
2022-12-22T06:21:36.024Z,9.00
2022-12-22T06:24:02.801Z,9.00
2022-12-22T06:26:29.505Z,8.90
2022-12-22T06:28:58.279Z,8.90
2022-12-22T06:31:25.133Z,8.90
2022-12-22T06:33:51.901Z,8.80
2022-12-22T06:36:18.577Z,8.80
2022-12-22T06:38:45.312Z,8.80
2022-12-22T06:41:12.055Z,8.80
2022-12-22T06:43:38.726Z,8.80
2022-12-22T06:46:05.899Z,8.80
2022-12-22T06:48:32.540Z,8.70
2022-12-22T06:51:00.018Z,8.70
2022-12-22T06:53:27.042Z,8.70
2022-12-22T06:55:53.637Z,8.70
2022-12-22T06:58:20.305Z,8.70
2022-12-22T07:00:46.962Z,8.60
2022-12-22T07:03:13.856Z,8.60
2022-12-22T07:05:40.699Z,8.60
2022-12-22T07:08:09.157Z,8.50
2022-12-22T07:10:36.262Z,8.50
2022-12-22T07:13:02.973Z,8.40
2022-12-22T07:15:29.557Z,8.40
2022-12-22T07:17:56.293Z,8.40
2022-12-22T07:20:22.879Z,8.30
2022-12-22T07:22:56.879Z,8.30
2022-12-22T07:25:23.535Z,8.30
2022-12-22T07:27:52.571Z,8.30
2022-12-22T07:30:23.450Z,8.30
2022-12-22T07:32:51.241Z,8.30
2022-12-22T07:35:17.924Z,8.30
2022-12-22T07:37:44.619Z,8.30
2022-12-22T07:40:11.567Z,8.30
2022-12-22T07:42:38.407Z,8.30
2022-12-22T07:45:05.474Z,8.30
2022-12-22T07:47:35.576Z,8.30
2022-12-22T07:50:02.952Z,8.30
2022-12-22T07:52:29.551Z,8.30
2022-12-22T07:54:56.235Z,8.30
2022-12-22T07:57:22.816Z,8.20
2022-12-22T07:59:49.420Z,8.20
2022-12-22T08:02:16.244Z,8.10
2022-12-22T08:04:43.099Z,8.10
2022-12-22T08:07:09.760Z,8.10
2022-12-22T08:09:36.371Z,8.00
2022-12-22T08:12:03.096Z,8.00
2022-12-22T08:14:29.749Z,7.90
2022-12-22T08:16:56.524Z,7.90
2022-12-22T08:19:23.137Z,7.90
2022-12-22T08:21:52.976Z,7.80
2022-12-22T08:24:20.412Z,7.80
2022-12-22T08:26:47.463Z,7.80
2022-12-22T08:29:18.480Z,7.70
2022-12-22T08:31:45.337Z,7.70
2022-12-22T08:34:14.041Z,7.70
2022-12-22T08:36:44.223Z,7.70
2022-12-22T08:39:10.970Z,7.60
2022-12-22T08:41:37.575Z,7.60
2022-12-22T08:44:04.225Z,7.60
2022-12-22T08:46:30.904Z,7.60
2022-12-22T08:48:57.524Z,7.60
2022-12-22T08:51:24.152Z,7.60
2022-12-22T08:54:06.849Z,7.60
2022-12-22T08:56:33.924Z,7.70
2022-12-22T08:59:01.039Z,7.70
2022-12-22T09:01:27.827Z,7.70
2022-12-22T09:03:54.533Z,7.80
2022-12-22T09:06:26.932Z,7.80
2022-12-22T09:08:58.420Z,7.80
2022-12-22T09:11:25.106Z,7.80
2022-12-22T09:13:52.399Z,7.90
2022-12-22T09:16:19.401Z,8.00
2022-12-22T09:18:46.287Z,8.10
2022-12-22T09:21:13.011Z,8.10
2022-12-22T09:23:39.639Z,8.10
2022-12-22T09:26:10.408Z,8.10
2022-12-22T09:28:37.345Z,8.10
2022-12-22T09:31:04.312Z,8.20
2022-12-22T09:33:31.247Z,8.20
2022-12-22T09:35:57.915Z,8.10
2022-12-22T09:38:28.137Z,8.10
2022-12-22T09:40:56.961Z,8.10
2022-12-22T09:43:28.598Z,8.00
2022-12-22T09:45:55.693Z,8.00
2022-12-22T09:48:22.472Z,8.00
2022-12-22T09:50:49.180Z,8.00
2022-12-22T09:53:22.824Z,8.00
2022-12-22T09:55:50.176Z,8.00
2022-12-22T09:58:28.172Z,8.00
2022-12-22T10:01:37.120Z,8.00
2022-12-22T10:04:26.150Z,8.00
2022-12-22T10:07:13.497Z,8.00
2022-12-22T10:09:55.524Z,7.90
2022-12-22T10:12:25.666Z,7.80
2022-12-22T10:14:53.233Z,7.80
2022-12-22T10:17:33.385Z,7.80
2022-12-22T10:20:23.176Z,7.80
2022-12-22T10:22:55.820Z,7.80
2022-12-22T10:26:26.371Z,7.90
2022-12-22T10:29:05.754Z,7.90
2022-12-22T10:31:35.997Z,7.90
2022-12-22T10:34:16.241Z,7.90
2022-12-22T10:36:50.298Z,7.90
2022-12-22T10:39:30.672Z,7.80
2022-12-22T10:42:10.198Z,7.80
2022-12-22T10:44:37.414Z,7.80
2022-12-22T10:47:17.724Z,7.80
2022-12-22T10:49:45.990Z,7.80
2022-12-22T10:52:41.205Z,7.90
2022-12-22T10:55:20.117Z,7.90
2022-12-22T10:57:46.858Z,7.90
2022-12-22T11:00:26.861Z,7.90
2022-12-22T11:02:55.067Z,8.00
2022-12-22T11:05:21.809Z,8.00
2022-12-22T11:07:48.539Z,8.00
2022-12-22T11:10:15.292Z,8.00
2022-12-22T11:13:05.072Z,8.00
2022-12-22T11:15:37.839Z,8.00
2022-12-22T11:18:33.328Z,8.10
2022-12-22T11:21:05.814Z,8.20
2022-12-22T11:23:44.924Z,8.20
2022-12-22T11:26:14.494Z,8.30
2022-12-22T11:29:10.086Z,8.30
2022-12-22T11:31:53.687Z,8.40
2022-12-22T11:34:57.641Z,8.40
2022-12-22T11:37:36.174Z,8.50
2022-12-22T11:40:20.860Z,8.50
2022-12-22T11:43:27.654Z,8.50
2022-12-22T11:46:00.067Z,8.50
2022-12-22T11:48:43.980Z,8.50
2022-12-22T11:51:44.669Z,8.50
2022-12-22T11:54:29.825Z,8.40
2022-12-22T11:57:17.949Z,8.60
2022-12-22T12:00:14.498Z,9.00
2022-12-22T12:03:05.177Z,9.40
2022-12-22T12:05:56.600Z,9.40
2022-12-22T12:08:44.780Z,9.40
2022-12-22T12:11:23.220Z,9.30
2022-12-22T12:13:53.083Z,9.20
2022-12-22T12:16:26.003Z,9.10
2022-12-22T12:19:28.806Z,9.10
2022-12-22T12:21:57.743Z,9.00
2022-12-22T12:24:50.897Z,9.00
2022-12-22T12:27:35.837Z,9.00
2022-12-22T12:30:37.441Z,9.00
2022-12-22T12:33:12.092Z,9.00
2022-12-22T12:36:03.088Z,9.00
2022-12-22T12:42:01.156Z,9.00
2022-12-22T12:44:29.968Z,9.00
2022-12-22T12:47:24.256Z,9.00
2022-12-22T12:49:56.651Z,9.10
2022-12-22T12:52:41.482Z,9.10
2022-12-22T12:55:32.617Z,9.10
2022-12-22T12:58:03.060Z,9.20
2022-12-22T13:00:35.260Z,9.30
2022-12-22T13:03:25.190Z,9.30
2022-12-22T13:05:59.569Z,9.30
2022-12-22T13:08:30.273Z,9.30
2022-12-22T13:10:56.941Z,9.40
2022-12-22T13:13:23.548Z,9.40
2022-12-22T13:16:02.583Z,9.40
2022-12-22T13:18:29.438Z,9.40
2022-12-22T13:21:50.899Z,9.50
2022-12-22T13:24:22.873Z,9.50
2022-12-22T13:26:42.518Z,9.50
2022-12-22T13:29:19.493Z,9.50
2022-12-22T13:31:47.937Z,9.50
2022-12-22T13:34:26.448Z,9.50
2022-12-22T13:36:53.109Z,9.50
2022-12-22T13:39:19.774Z,9.40
2022-12-22T13:41:48.249Z,9.40
2022-12-22T13:44:29.017Z,9.40
2022-12-22T13:46:56.073Z,9.40
2022-12-22T13:49:51.675Z,9.40
2022-12-22T13:52:14.512Z,9.30
2022-12-22T13:54:41.102Z,9.30
2022-12-22T13:57:14.670Z,9.20
2022-12-22T13:59:42.477Z,9.20
2022-12-22T14:02:09.176Z,9.20
2022-12-22T14:04:36.842Z,9.20
2022-12-22T14:07:17.414Z,9.20
2022-12-22T14:09:45.027Z,9.10
2022-12-22T14:12:19.669Z,9.10
2022-12-22T14:14:47.439Z,9.10
2022-12-22T14:17:34.333Z,9.10
2022-12-22T14:20:02.925Z,9.10
2022-12-22T14:22:33.885Z,9.00
2022-12-22T14:25:04.239Z,9.00
2022-12-22T14:27:40.116Z,9.00
2022-12-22T14:30:15.455Z,9.00
2022-12-22T14:32:46.757Z,9.00
2022-12-22T14:35:22.121Z,8.90
2022-12-22T14:37:49.896Z,8.90
2022-12-22T14:40:40.215Z,8.90
2022-12-22T14:43:16.284Z,8.90
2022-12-22T14:45:43.193Z,8.90
2022-12-22T14:48:10.083Z,8.90
2022-12-22T14:50:36.881Z,9.00
2022-12-22T14:53:04.169Z,8.90
2022-12-22T14:55:38.994Z,8.90
2022-12-22T14:58:09.658Z,9.00
2022-12-22T15:00:43.724Z,9.00
2022-12-22T15:03:25.693Z,9.00
2022-12-22T15:05:52.886Z,9.00
2022-12-22T15:08:39.282Z,9.00
2022-12-22T15:11:13.667Z,9.00
2022-12-22T15:13:40.899Z,9.00
2022-12-22T15:16:09.945Z,9.00
2022-12-22T15:18:36.645Z,9.00
2022-12-22T15:21:03.807Z,9.00
2022-12-22T15:23:30.505Z,9.00
2022-12-22T15:25:57.126Z,9.00
2022-12-22T15:28:23.956Z,9.00
2022-12-22T15:30:50.691Z,9.00
2022-12-22T15:33:17.930Z,9.00
2022-12-22T15:35:44.661Z,9.00
2022-12-22T15:38:18.957Z,9.00
2022-12-22T15:40:45.699Z,9.10
2022-12-22T15:43:36.655Z,9.10
2022-12-22T15:45:59.271Z,9.10
2022-12-22T15:48:28.411Z,9.10
2022-12-22T15:50:55.339Z,9.10
2022-12-22T15:53:21.991Z,9.10
2022-12-22T15:55:50.120Z,9.10
2022-12-22T15:58:18.572Z,9.10
2022-12-22T16:00:46.407Z,9.10
2022-12-22T16:03:14.165Z,9.20
2022-12-22T16:05:41.005Z,9.20
2022-12-22T16:08:24.160Z,9.20
2022-12-22T16:10:50.800Z,9.20
2022-12-22T16:13:17.779Z,9.20
2022-12-22T16:15:44.819Z,9.20
2022-12-22T16:18:11.508Z,9.30
2022-12-22T16:20:39.997Z,9.30
2022-12-22T16:23:07.951Z,9.30
2022-12-22T16:25:36.604Z,9.40
2022-12-22T16:28:06.335Z,9.40
2022-12-22T16:30:33.436Z,9.40
2022-12-22T16:33:01.308Z,9.50
2022-12-22T16:35:29.178Z,9.50
2022-12-22T16:37:56.726Z,9.50
2022-12-22T16:40:23.455Z,9.50
2022-12-22T16:45:48.210Z,9.60
2022-12-22T16:48:33.483Z,9.70
2022-12-22T16:51:00.195Z,9.70
2022-12-22T16:53:26.937Z,9.70
2022-12-22T16:55:53.691Z,9.80
2022-12-22T16:58:20.276Z,9.80
2022-12-22T17:00:46.988Z,9.80
2022-12-22T17:03:25.164Z,9.80
2022-12-22T17:05:53.666Z,9.90
2022-12-22T17:08:27.652Z,9.90
2022-12-22T17:10:55.199Z,9.90
2022-12-22T17:13:33.610Z,9.90
2022-12-22T17:16:00.351Z,10.00
2022-12-22T17:18:28.656Z,10.00
2022-12-22T17:20:56.209Z,10.00
2022-12-22T17:23:30.555Z,10.00
2022-12-22T17:25:59.062Z,10.00
2022-12-22T17:28:25.726Z,10.00
2022-12-22T17:31:05.142Z,10.10
2022-12-22T17:33:31.914Z,10.10
2022-12-22T17:35:58.695Z,10.10
2022-12-22T17:38:25.479Z,10.10
2022-12-22T17:40:52.429Z,10.10
2022-12-22T17:43:22.552Z,10.10
2022-12-22T17:45:49.304Z,10.10
2022-12-22T17:48:16.291Z,10.10
2022-12-22T17:50:43.985Z,10.10
2022-12-22T17:53:15.700Z,10.10
2022-12-22T17:58:29.220Z,10.20
2022-12-22T18:00:55.977Z,10.20
2022-12-22T18:03:22.770Z,10.20
2022-12-22T18:05:49.567Z,10.20
2022-12-22T18:08:17.771Z,10.20
2022-12-22T18:10:44.826Z,10.20
2022-12-22T18:13:23.103Z,10.20
2022-12-22T18:15:51.104Z,10.20
2022-12-22T18:18:18.073Z,10.20
2022-12-22T18:21:06.385Z,10.20
2022-12-22T18:23:47.768Z,10.20
2022-12-22T18:26:20.233Z,10.20
2022-12-22T18:28:47.288Z,10.20
2022-12-22T18:31:14.196Z,10.20
2022-12-22T18:34:34.453Z,10.20
2022-12-22T18:36:54.649Z,10.20
2022-12-22T18:39:22.577Z,10.20
2022-12-22T18:41:51.201Z,10.20
2022-12-22T18:44:18.720Z,10.20
2022-12-22T18:46:45.980Z,10.20
2022-12-22T18:49:12.931Z,10.20
2022-12-22T18:51:39.757Z,10.20
2022-12-22T18:54:21.302Z,10.20
2022-12-22T18:56:48.030Z,10.20
2022-12-22T18:59:25.105Z,10.20
2022-12-22T19:01:52.156Z,10.20
2022-12-22T19:04:19.066Z,10.20
2022-12-22T19:06:48.243Z,10.20
2022-12-22T19:09:15.140Z,10.20
2022-12-22T19:11:41.985Z,10.20
2022-12-22T19:14:19.184Z,10.20
2022-12-22T19:16:46.185Z,10.20
2022-12-22T19:19:21.927Z,10.20
2022-12-22T19:21:48.711Z,10.20
2022-12-22T19:24:15.565Z,10.20
2022-12-22T19:26:42.422Z,10.20
2022-12-22T19:29:09.599Z,10.20
2022-12-22T19:31:36.383Z,10.20
2022-12-22T19:34:05.204Z,10.20
2022-12-22T19:36:32.118Z,10.20
2022-12-22T19:39:03.901Z,10.20
2022-12-22T19:41:50.308Z,10.20
2022-12-22T19:44:24.856Z,10.20
2022-12-22T19:46:52.047Z,10.20
2022-12-22T19:49:20.673Z,10.20
2022-12-22T19:51:47.684Z,10.20
2022-12-22T19:54:14.952Z,10.20
2022-12-22T19:56:42.601Z,10.20
2022-12-22T19:59:21.920Z,10.20
2022-12-22T20:01:52.341Z,10.20
2022-12-22T20:04:19.074Z,10.20
2022-12-22T20:06:45.789Z,10.20
2022-12-22T20:09:12.449Z,10.20
2022-12-22T20:11:39.397Z,10.20
2022-12-22T20:14:06.057Z,10.20
2022-12-22T20:16:32.763Z,10.20
2022-12-22T20:19:00.371Z,10.20
2022-12-22T20:21:29.654Z,10.20
2022-12-22T20:23:58.105Z,10.20
2022-12-22T20:26:25.310Z,10.20
2022-12-22T20:28:52.584Z,10.20
2022-12-22T20:31:20.897Z,10.20
2022-12-22T20:33:47.758Z,10.30
2022-12-22T20:36:24.785Z,10.20
2022-12-22T20:38:52.004Z,10.30
2022-12-22T20:41:19.121Z,10.30
2022-12-22T20:43:45.948Z,10.30
2022-12-22T20:46:17.186Z,10.20
2022-12-22T20:48:57.256Z,10.30
2022-12-22T20:51:26.346Z,10.30
2022-12-22T20:53:53.224Z,10.30
2022-12-22T20:56:25.928Z,10.30
2022-12-22T20:58:52.756Z,10.30
2022-12-22T21:01:19.569Z,10.30
2022-12-22T21:03:46.392Z,10.30
2022-12-22T21:06:27.341Z,10.30
2022-12-22T21:08:54.741Z,10.30
2022-12-22T21:11:21.626Z,10.30
2022-12-22T21:13:48.471Z,10.30
2022-12-22T21:16:17.364Z,10.30
2022-12-22T21:18:44.156Z,10.30
2022-12-22T21:21:11.845Z,10.30
2022-12-22T21:23:38.735Z,10.30
2022-12-22T21:26:05.922Z,10.30
2022-12-22T21:28:36.133Z,10.30
2022-12-22T21:31:03.904Z,10.30
2022-12-22T21:33:30.791Z,10.30
2022-12-22T21:35:58.146Z,10.30
2022-12-22T21:38:26.303Z,10.30
2022-12-22T21:40:53.045Z,10.30
2022-12-22T21:43:19.671Z,10.30
2022-12-22T21:45:46.438Z,10.30
2022-12-22T21:48:20.012Z,10.30
2022-12-22T21:50:47.404Z,10.30
2022-12-22T21:53:19.864Z,10.30
2022-12-22T21:55:49.635Z,10.30
2022-12-22T21:58:16.358Z,10.30
2022-12-22T22:00:45.986Z,10.30
2022-12-22T22:03:13.624Z,10.30
2022-12-22T22:05:40.598Z,10.20
2022-12-22T22:08:09.252Z,10.20
2022-12-22T22:10:37.724Z,10.20
2022-12-22T22:13:04.525Z,10.20
2022-12-22T22:15:31.629Z,10.20
2022-12-22T22:18:03.015Z,10.20
2022-12-22T22:20:33.510Z,10.20
2022-12-22T22:23:00.728Z,10.20
2022-12-22T22:25:27.476Z,10.20
2022-12-22T22:27:54.197Z,10.20
2022-12-22T22:30:22.605Z,10.20
2022-12-22T22:32:49.436Z,10.20
2022-12-22T22:35:16.229Z,10.20
2022-12-22T22:37:42.898Z,10.20
2022-12-22T22:40:10.662Z,10.10
2022-12-22T22:42:37.416Z,10.10
2022-12-22T22:45:05.139Z,10.10
2022-12-22T22:47:31.955Z,10.10
2022-12-22T22:49:58.607Z,10.10
2022-12-22T22:52:25.303Z,10.10
2022-12-22T22:54:51.915Z,10.10
2022-12-22T22:57:18.566Z,10.10
2022-12-22T22:59:45.184Z,10.10
2022-12-22T23:02:12.007Z,10.10
2022-12-22T23:04:38.684Z,10.10
2022-12-22T23:07:05.289Z,10.10
2022-12-22T23:09:31.963Z,10.10
2022-12-22T23:11:58.630Z,10.10
2022-12-22T23:14:25.631Z,10.10
2022-12-22T23:16:52.451Z,10.10
2022-12-22T23:19:19.201Z,10.10
2022-12-22T23:21:45.927Z,10.10
2022-12-22T23:24:12.693Z,10.10
2022-12-22T23:26:39.416Z,10.10
2022-12-22T23:29:06.112Z,10.10
2022-12-22T23:31:33.327Z,10.10
2022-12-22T23:34:00.027Z,10.10
2022-12-22T23:36:26.717Z,10.10
2022-12-22T23:38:53.326Z,10.10
2022-12-22T23:41:20.111Z,10.10
2022-12-22T23:43:46.909Z,10.10
2022-12-22T23:46:15.187Z,10.10
2022-12-22T23:48:42.040Z,10.10
2022-12-22T23:51:09.483Z,10.00
2022-12-22T23:53:36.504Z,10.00
2022-12-22T23:56:03.459Z,10.00
2022-12-22T23:58:30.202Z,10.00
